Time;durP1;ratioP1;P1;durP2;ratioP2;P2;SDS_P1;SDS_P2;PMS_P1;PMS_P2;Temp;Humidity;BMP_temperature;BMP_pressure;BME280_temperature;BME280_humidity;BME280_pressure;Samples;Min_cycle;Max_cycle;Signal;HPM_P1;HPM_P2
2023/01/30 00:01:48;;;;;;;20.50;9.40;;;;;;;-1.91;100.00;100849.58;109199;1252;58825;-80
2023/01/30 00:04:37;;;;;;;21.70;9.70;;;;;;;-1.87;100.00;100848.77;109364;1252;60137;-80
2023/01/30 00:07:26;;;;;;;18.60;7.80;;;;;;;-1.86;100.00;100842.39;109171;1254;73861;-80
2023/01/30 00:10:19;;;;;;;20.40;8.20;;;;;;;-1.85;100.00;100837.62;109250;1254;70169;-80
2023/01/30 00:13:09;;;;;;;15.80;7.10;;;;;;;-1.85;100.00;100838.77;109337;1253;73656;-80
2023/01/30 00:15:58;;;;;;;21.50;8.50;;;;;;;-1.84;100.00;100833.39;109378;1254;61569;-80
2023/01/30 00:18:49;;;;;;;20.50;7.80;;;;;;;-1.84;100.00;100827.27;109242;1252;61315;-80
2023/01/30 00:21:38;;;;;;;18.00;7.80;;;;;;;-1.83;100.00;100826.61;109347;1254;73870;-80
2023/01/30 00:24:32;;;;;;;22.50;8.90;;;;;;;-1.83;100.00;100824.30;109432;1254;69192;-80
2023/01/30 00:27:26;;;;;;;20.20;7.90;;;;;;;-1.81;100.00;100825.88;109459;1253;73471;-80
2023/01/30 00:30:16;;;;;;;22.70;8.10;;;;;;;-1.79;100.00;100821.16;109211;1254;59286;-80
2023/01/30 00:33:05;;;;;;;18.30;7.80;;;;;;;-1.79;100.00;100817.57;109449;1253;59901;-79
2023/01/30 00:35:55;;;;;;;15.30;7.40;;;;;;;-1.78;100.00;100815.85;109200;1254;73748;-80
2023/01/30 00:38:44;;;;;;;15.20;7.20;;;;;;;-1.76;100.00;100814.31;109266;1253;69726;-80
2023/01/30 00:47:50;;;;;;;14.00;6.00;;;;;;;-1.78;100.00;100808.94;109401;1253;59941;-80
2023/01/30 00:50:42;;;;;;;18.40;7.30;;;;;;;-1.76;100.00;100806.17;109442;1252;72904;-80
2023/01/30 00:53:34;;;;;;;16.30;7.00;;;;;;;-1.74;100.00;100805.02;109272;1253;69102;-80
2023/01/30 00:56:23;;;;;;;16.00;6.40;;;;;;;-1.69;100.00;100804.81;109231;1253;72737;-80
2023/01/30 00:59:11;;;;;;;13.60;6.10;;;;;;;-1.68;100.00;100797.36;109213;1252;59236;-80
2023/01/30 01:02:00;;;;;;;13.30;6.60;;;;;;;-1.66;100.00;100795.48;109498;1252;61556;-80
2023/01/30 01:04:49;;;;;;;19.00;7.10;;;;;;;-1.64;100.00;100797.36;109113;1254;74350;-80
2023/01/30 01:07:38;;;;;;;13.60;6.10;;;;;;;-1.65;100.00;100794.97;109415;1254;68839;-80
2023/01/30 01:10:30;;;;;;;13.90;6.90;;;;;;;-1.65;100.00;100788.23;109387;1253;73851;-80
2023/01/30 01:13:19;;;;;;;16.20;6.90;;;;;;;-1.66;100.00;100787.09;109317;1253;58546;-80
2023/01/30 01:16:09;;;;;;;17.40;6.10;;;;;;;-1.70;100.00;100785.11;109417;1253;61291;-80
2023/01/30 01:18:59;;;;;;;18.70;6.80;;;;;;;-1.73;100.00;100783.13;109402;1253;74824;-80
2023/01/30 01:21:48;;;;;;;16.30;6.20;;;;;;;-1.76;100.00;100778.98;109268;1256;71467;-80
2023/01/30 01:24:37;;;;;;;12.80;5.90;;;;;;;-1.75;100.00;100774.63;109239;1253;73123;-80
2023/01/30 01:27:26;;;;;;;14.80;5.90;;;;;;;-1.75;100.00;100772.90;109417;1253;60900;-79
2023/01/30 01:30:15;;;;;;;15.70;5.70;;;;;;;-1.74;100.00;100772.49;109151;1254;61310;-79
2023/01/30 01:33:05;;;;;;;11.00;5.30;;;;;;;-1.75;100.00;100768.20;109405;1252;73726;-80
2023/01/30 01:35:55;;;;;;;12.00;5.00;;;;;;;-1.75;100.00;100767.79;109284;1254;68400;-80
2023/01/30 01:38:44;;;;;;;11.60;5.50;;;;;;;-1.74;100.00;100762.11;109452;1252;72420;-80
2023/01/30 01:41:35;;;;;;;11.80;5.40;;;;;;;-1.71;100.00;100758.42;109399;1254;61188;-80
2023/01/30 01:44:23;;;;;;;10.70;5.10;;;;;;;-1.69;100.00;100756.96;109273;1253;61643;-80
2023/01/30 01:47:13;;;;;;;14.80;4.70;;;;;;;-1.68;100.00;100755.92;109367;1254;73990;-80
2023/01/30 01:50:02;;;;;;;13.40;4.80;;;;;;;-1.68;100.00;100754.79;109321;1254;67561;-79
2023/01/30 01:52:52;;;;;;;11.90;5.30;;;;;;;-1.68;100.00;100758.59;109140;1253;73544;-80
2023/01/30 01:55:42;;;;;;;10.80;4.50;;;;;;;-1.68;100.00;100756.10;109358;1253;61534;-79
2023/01/30 01:58:34;;;;;;;10.90;4.70;;;;;;;-1.70;100.00;100755.23;109181;1253;60304;-80
2023/01/30 02:01:23;;;;;;;15.20;5.50;;;;;;;-1.68;100.00;100753.19;109302;1254;75016;-80
2023/01/30 02:05:00;;;;;;;13.70;5.10;;;;;;;-1.67;100.00;100748.98;109283;1252;69373;-80
2023/01/30 02:07:22;;;;;;;12.20;4.80;;;;;;;-1.68;100.00;100744.84;109442;1252;73959;-80
2023/01/30 02:10:22;;;;;;;12.20;4.00;;;;;;;-1.67;100.00;100737.23;109246;1256;59792;-80
2023/01/30 02:13:11;;;;;;;9.80;5.00;;;;;;;-1.66;100.00;100736.20;109347;1254;59521;-80
2023/01/30 02:16:01;;;;;;;10.50;4.40;;;;;;;-1.65;100.00;100739.69;109374;1253;73967;-80
2023/01/30 02:18:50;;;;;;;11.90;4.90;;;;;;;-1.69;100.00;100739.64;109295;1253;68676;-80
2023/01/30 02:21:42;;;;;;;9.30;4.40;;;;;;;-1.71;100.00;100737.56;109367;1253;73577;-80
2023/01/30 02:24:34;;;;;;;10.10;4.80;;;;;;;-1.72;100.00;100737.84;109479;1253;60516;-80
2023/01/30 02:27:26;;;;;;;10.60;5.30;;;;;;;-1.70;100.00;100736.91;109269;1256;61517;-79
2023/01/30 02:30:20;;;;;;;9.20;5.10;;;;;;;-1.67;100.00;100732.36;109389;1254;73725;-80
2023/01/30 02:33:21;;;;;;;9.10;3.70;;;;;;;-1.68;100.00;100725.38;109384;1253;69880;-80
2023/01/30 02:36:37;;;;;;;9.10;4.00;;;;;;;-1.71;100.00;100722.69;109244;1254;73534;-79
2023/01/30 02:39:48;;;;;;;11.40;4.80;;;;;;;-1.72;100.00;100722.44;109384;1253;59298;-80
2023/01/30 02:42:46;;;;;;;9.20;4.00;;;;;;;-1.72;100.00;100726.96;109268;1252;60375;-80
2023/01/30 02:45:49;;;;;;;11.10;4.60;;;;;;;-1.73;100.00;100727.91;109164;1254;74870;-80
2023/01/30 02:48:55;;;;;;;12.00;4.80;;;;;;;-1.74;100.00;100733.33;109341;1254;69616;-80
2023/01/30 02:51:47;;;;;;;7.10;3.50;;;;;;;-1.72;100.00;100729.98;109169;1253;73498;-80
2023/01/30 02:54:36;;;;;;;11.20;4.20;;;;;;;-1.79;100.00;100731.35;109094;1253;60413;-79
2023/01/30 02:57:26;;;;;;;10.10;4.40;;;;;;;-1.92;100.00;100724.17;109348;1254;61191;-80
2023/01/30 03:00:32;;;;;;;10.70;4.40;;;;;;;-1.94;100.00;100722.02;109235;1253;72923;-80
2023/01/30 03:03:33;;;;;;;9.10;4.20;;;;;;;-1.95;100.00;100715.86;109265;1253;69757;-80
2023/01/30 03:07:11;;;;;;;11.00;4.10;;;;;;;-1.98;100.00;100721.39;109274;1253;73711;-80
2023/01/30 03:10:01;;;;;;;8.60;3.70;;;;;;;-2.00;100.00;100713.13;109128;1256;60977;-80
2023/01/30 03:12:57;;;;;;;6.10;3.20;;;;;;;-2.02;100.00;100711.39;109280;1253;61570;-80
2023/01/30 03:15:52;;;;;;;9.60;3.80;;;;;;;-2.03;100.00;100705.60;109269;1253;73543;-80
2023/01/30 03:18:41;;;;;;;9.10;4.20;;;;;;;-2.04;100.00;100705.41;109072;1254;70052;-80
2023/01/30 03:21:33;;;;;;;;;;;;;;;-2.03;100.00;100708.15;109225;1254;73533;-80
2023/01/30 03:24:22;;;;;;;10.70;4.00;;;;;;;-2.06;100.00;100709.06;109334;1253;60265;-80
2023/01/30 03:27:11;;;;;;;8.10;4.40;;;;;;;-2.13;100.00;100708.30;109316;1252;61141;-80
2023/01/30 03:30:04;;;;;;;8.60;3.60;;;;;;;-2.15;100.00;100706.00;109344;1254;74822;-80
2023/01/30 03:32:53;;;;;;;11.00;3.90;;;;;;;-2.14;100.00;100707.18;109352;1254;67848;-80
2023/01/30 03:36:14;;;;;;;8.90;3.90;;;;;;;-2.14;100.00;100710.60;109338;1254;72659;-80
2023/01/30 03:39:03;;;;;;;9.20;3.50;;;;;;;-2.16;100.00;100704.81;109120;1254;59236;-80
2023/01/30 03:41:52;;;;;;;7.20;3.70;;;;;;;-2.18;100.00;100702.20;109138;1254;60305;-80
2023/01/30 03:44:42;;;;;;;8.50;4.40;;;;;;;-2.21;100.00;100696.84;109289;1253;73692;-80
2023/01/30 03:47:31;;;;;;;9.10;4.30;;;;;;;-2.21;100.00;100696.48;109336;1253;69912;-80
2023/01/30 03:50:21;;;;;;;9.10;3.50;;;;;;;-2.22;100.00;100695.89;109209;1254;73372;-80
2023/01/30 03:53:14;;;;;;;9.90;3.90;;;;;;;-2.20;100.00;100696.56;109272;1253;61714;-80
2023/01/30 03:56:03;;;;;;;8.00;3.90;;;;;;;-2.19;100.00;100692.05;109212;1254;61289;-79
2023/01/30 03:58:52;;;;;;;7.50;3.80;;;;;;;-2.18;100.00;100687.81;109351;1259;74766;-80
2023/01/30 04:01:45;;;;;;;9.10;3.40;;;;;;;-2.18;100.00;100686.30;109108;1254;69832;-80
2023/01/30 04:04:35;;;;;;;10.70;3.90;;;;;;;-2.19;100.00;100691.80;109137;1254;72207;-80
2023/01/30 04:07:27;;;;;;;8.40;4.00;;;;;;;-2.19;100.00;100686.70;109228;1254;58844;-80
2023/01/30 04:10:18;;;;;;;10.90;4.30;;;;;;;-2.17;100.00;100687.09;109210;1254;61213;-80
2023/01/30 04:13:07;;;;;;;6.20;3.20;;;;;;;-2.17;100.00;100686.89;109266;1253;74361;-80
2023/01/30 04:16:21;;;;;;;6.80;3.90;;;;;;;-2.18;100.00;100684.08;109345;1254;68446;-80
2023/01/30 04:19:34;;;;;;;9.80;3.40;;;;;;;-2.19;100.00;100679.12;109287;1254;73730;-80
2023/01/30 04:22:23;;;;;;;8.40;3.80;;;;;;;-2.16;100.00;100672.59;109274;1254;60471;-80
2023/01/30 04:25:14;;;;;;;7.40;3.30;;;;;;;-2.17;100.00;100668.52;109299;1256;61238;-80
2023/01/30 04:28:03;;;;;;;7.60;3.20;;;;;;;-2.19;100.00;100671.95;109175;1254;73937;-80
2023/01/30 04:30:55;;;;;;;8.90;3.60;;;;;;;-2.21;100.00;100672.21;109206;1253;68635;-80
2023/01/30 04:34:17;;;;;;;6.90;3.20;;;;;;;-2.21;100.00;100671.92;109125;1254;72642;-80
2023/01/30 04:37:06;;;;;;;8.60;3.70;;;;;;;-2.23;100.00;100665.94;109289;1254;60376;-80
2023/01/30 04:39:55;;;;;;;9.70;4.20;;;;;;;-2.27;100.00;100667.08;109270;1256;61220;-80
2023/01/30 04:42:47;;;;;;;8.40;3.60;;;;;;;-2.27;100.00;100664.29;109236;1254;75081;-80
2023/01/30 04:45:54;;;;;;;8.20;3.60;;;;;;;-2.27;100.00;100664.63;109468;1254;68545;-80
2023/01/30 04:48:43;;;;;;;8.40;3.20;;;;;;;-2.27;100.00;100667.95;109238;1254;73778;-80
2023/01/30 04:51:32;;;;;;;7.90;3.70;;;;;;;-2.26;100.00;100665.61;109220;1254;60196;-80
2023/01/30 04:54:21;;;;;;;7.60;3.30;;;;;;;-2.28;100.00;100669.91;109369;1254;61305;-80
2023/01/30 04:57:10;;;;;;;8.10;3.80;;;;;;;-2.27;100.00;100665.56;109497;1253;74060;-80
2023/01/30 04:59:59;;;;;;;7.70;3.40;;;;;;;-2.27;100.00;100656.25;109207;1256;69634;-80
2023/01/30 05:02:49;;;;;;;8.40;4.60;;;;;;;-2.29;100.00;100655.74;109025;1254;72272;-80
2023/01/30 05:05:38;;;;;;;10.40;3.70;;;;;;;-2.29;100.00;100658.79;109284;1254;61154;-80
2023/01/30 05:08:29;;;;;;;8.40;4.10;;;;;;;-2.29;100.00;100659.94;109533;1253;60240;-80
2023/01/30 05:11:19;;;;;;;8.00;3.80;;;;;;;-2.30;100.00;100653.96;109290;1253;75058;-80
2023/01/30 05:14:08;;;;;;;9.10;4.50;;;;;;;-2.29;100.00;100659.70;109252;1254;68048;-80
2023/01/30 05:16:58;;;;;;;9.10;3.70;;;;;;;-2.28;100.00;100655.38;109308;1254;73613;-80
2023/01/30 05:19:47;;;;;;;8.90;3.80;;;;;;;-2.29;100.00;100654.01;109312;1258;59675;-79
2023/01/30 05:22:37;;;;;;;9.70;3.50;;;;;;;-2.31;100.00;100654.36;109413;1254;61461;-80
2023/01/30 05:25:25;;;;;;;5.70;3.80;;;;;;;-2.32;100.00;100650.31;109352;1254;75051;-80
2023/01/30 05:28:14;;;;;;;13.10;3.60;;;;;;;-2.36;100.00;100656.23;109347;1257;69665;-80
2023/01/30 05:31:05;;;;;;;8.00;3.10;;;;;;;-2.36;100.00;100658.21;109384;1254;72698;-80
2023/01/30 05:33:54;;;;;;;13.40;4.30;;;;;;;-2.35;100.00;100656.49;109363;1254;60347;-80
2023/01/30 05:36:43;;;;;;;11.40;3.90;;;;;;;-2.34;100.00;100655.64;109166;1254;61393;-81
2023/01/30 05:39:32;;;;;;;9.10;3.50;;;;;;;-2.30;100.00;100654.70;109393;1255;73871;-80
2023/01/30 05:42:20;;;;;;;7.60;3.70;;;;;;;-2.31;100.00;100655.48;109433;1254;69644;-81
2023/01/30 05:45:09;;;;;;;10.00;4.90;;;;;;;-2.30;100.00;100655.96;109426;1253;73597;-80
2023/01/30 05:47:58;;;;;;;7.40;3.70;;;;;;;-2.29;100.00;100656.56;109407;1254;59361;-79
2023/01/30 05:50:50;;;;;;;7.20;3.30;;;;;;;-2.26;100.00;100649.71;109319;1254;60020;-80
2023/01/30 05:53:40;;;;;;;7.80;3.60;;;;;;;-2.24;100.00;100649.98;109316;1253;74847;-80
2023/01/30 05:56:32;;;;;;;8.90;4.20;;;;;;;-2.23;100.00;100652.87;109295;1254;68619;-80
2023/01/30 05:59:20;;;;;;;8.30;3.50;;;;;;;-2.22;100.00;100656.15;109308;1254;72697;-79
2023/01/30 06:02:09;;;;;;;8.50;3.80;;;;;;;-2.20;100.00;100660.53;109323;1253;60483;-80
2023/01/30 06:04:59;;;;;;;8.60;4.00;;;;;;;-2.19;100.00;100660.74;109347;1253;60178;-80
2023/01/30 06:07:48;;;;;;;8.20;4.00;;;;;;;-2.17;100.00;100658.05;109345;1253;74724;-81
2023/01/30 06:10:37;;;;;;;9.30;4.00;;;;;;;-2.15;100.00;100655.52;109364;1255;70668;-80
2023/01/30 06:13:26;;;;;;;9.70;3.70;;;;;;;-2.14;100.00;100655.73;109332;1254;73392;-80
2023/01/30 06:16:16;;;;;;;8.20;3.90;;;;;;;-2.12;100.00;100656.90;109352;1254;60408;-79
2023/01/30 06:19:04;;;;;;;8.80;4.10;;;;;;;-2.12;100.00;100657.19;109293;1252;210025;-80
2023/01/30 06:21:53;;;;;;;9.50;3.50;;;;;;;-2.11;100.00;100652.14;109350;1253;73619;-80
2023/01/30 06:24:42;;;;;;;8.70;3.40;;;;;;;-2.09;100.00;100647.91;109413;1254;69726;-80
2023/01/30 06:27:31;;;;;;;14.50;5.40;;;;;;;-2.06;100.00;100646.36;109327;1253;73504;-81
2023/01/30 06:30:21;;;;;;;9.10;4.50;;;;;;;-2.04;100.00;100639.15;109250;1253;60832;-80
2023/01/30 06:33:10;;;;;;;9.10;3.90;;;;;;;-2.04;100.00;100638.42;109280;1254;59941;-79
2023/01/30 06:35:59;;;;;;;7.50;3.60;;;;;;;-2.02;100.00;100637.30;109340;1254;74743;-80
2023/01/30 06:38:48;;;;;;;8.80;3.70;;;;;;;-2.01;100.00;100636.74;109351;1254;69242;-80
2023/01/30 06:41:36;;;;;;;9.80;4.00;;;;;;;-1.99;100.00;100637.41;109429;1254;71366;-80
2023/01/30 06:44:25;;;;;;;9.80;4.30;;;;;;;-1.96;100.00;100629.23;109328;1254;61554;-80
2023/01/30 06:47:14;;;;;;;9.70;4.20;;;;;;;-1.93;100.00;100630.74;109273;1257;61129;-80
2023/01/30 06:50:03;;;;;;;9.60;4.20;;;;;;;-1.92;100.00;100629.03;109290;1253;74706;-80
2023/01/30 06:52:55;;;;;;;8.80;4.20;;;;;;;-1.90;100.00;100630.64;109531;1252;69378;-81
2023/01/30 06:55:44;;;;;;;8.80;4.30;;;;;;;-1.90;100.00;100627.15;109238;1253;73625;-80
2023/01/30 06:58:33;;;;;;;8.30;3.70;;;;;;;-1.89;100.00;100622.00;109367;1254;60765;-80
2023/01/30 07:01:23;;;;;;;8.60;4.10;;;;;;;-1.87;100.00;100621.95;109382;1254;61190;-80
2023/01/30 07:04:12;;;;;;;7.10;4.10;;;;;;;-1.85;100.00;100618.52;109256;1254;74943;-80
2023/01/30 07:07:01;;;;;;;11.60;4.50;;;;;;;-1.83;100.00;100611.47;109350;1253;69650;-80
2023/01/30 07:09:50;;;;;;;9.00;4.30;;;;;;;-1.80;100.00;100611.66;109377;1254;72615;-80
2023/01/30 07:12:55;;;;;;;11.40;5.00;;;;;;;-1.77;100.00;100605.28;109301;1254;61236;-80
2023/01/30 07:15:45;;;;;;;9.10;4.40;;;;;;;-1.70;100.00;100603.92;109365;1254;61511;-80
2023/01/30 07:18:34;;;;;;;8.20;4.20;;;;;;;-1.65;100.00;100603.39;109372;1253;73726;-80
2023/01/30 07:21:26;;;;;;;7.90;4.50;;;;;;;-1.66;100.00;100600.91;109350;1253;68767;-80
2023/01/30 07:24:15;;;;;;;8.70;4.40;;;;;;;-1.65;100.00;100594.11;109237;1254;73727;-80
2023/01/30 07:27:03;;;;;;;9.20;4.70;;;;;;;-1.65;100.00;100591.02;109396;1253;60327;-80
2023/01/30 07:29:52;;;;;;;8.90;5.00;;;;;;;-1.62;100.00;100592.77;109288;1253;60025;-80
2023/01/30 07:32:42;;;;;;;11.50;5.20;;;;;;;-1.61;100.00;100593.14;109306;1254;74998;-80
2023/01/30 07:35:33;;;;;;;8.30;5.10;;;;;;;-1.62;100.00;100593.39;109054;1255;69567;-80
2023/01/30 07:38:22;;;;;;;10.90;5.50;;;;;;;-1.60;100.00;100595.76;109350;1254;73783;-80
2023/01/30 07:41:12;;;;;;;10.20;4.80;;;;;;;-1.61;100.00;100590.06;109319;1254;60083;-80
2023/01/30 07:44:01;;;;;;;11.10;5.50;;;;;;;-1.58;100.00;100581.09;109395;1253;60349;-80
2023/01/30 07:46:50;;;;;;;9.80;5.20;;;;;;;-1.54;100.00;100579.80;109334;1253;72824;-80
2023/01/30 07:49:39;;;;;;;13.50;5.40;;;;;;;-1.52;100.00;100575.77;109278;1254;68829;-80
2023/01/30 07:52:29;;;;;;;12.50;5.50;;;;;;;-1.49;100.00;100577.27;109429;1254;72490;-80
2023/01/30 07:55:18;;;;;;;12.50;5.70;;;;;;;-1.46;100.00;100573.73;109334;1254;60063;-80
2023/01/30 07:58:09;;;;;;;9.80;5.40;;;;;;;-1.40;100.00;100569.58;109214;1256;59974;-80
2023/01/30 08:00:58;;;;;;;12.20;5.90;;;;;;;-1.40;100.00;100566.65;109220;1254;73398;-80
2023/01/30 08:03:48;;;;;;;11.90;5.90;;;;;;;-1.40;100.00;100562.94;109506;1252;68442;-80
2023/01/30 08:06:38;;;;;;;9.80;4.90;;;;;;;-1.40;100.00;100562.44;109340;1254;73863;-80
2023/01/30 08:09:27;;;;;;;9.70;5.30;;;;;;;-1.39;100.00;100558.31;109348;1253;61229;-80
2023/01/30 08:12:17;;;;;;;11.90;5.20;;;;;;;-1.36;100.00;100549.17;109313;1254;58969;-80
2023/01/30 08:15:07;;;;;;;12.90;6.20;;;;;;;-1.36;100.00;100543.78;109434;1253;74796;-80
2023/01/30 08:17:57;;;;;;;10.30;5.50;;;;;;;-1.35;100.00;100543.28;109387;1253;69701;-80
2023/01/30 08:20:46;;;;;;;15.30;5.00;;;;;;;-1.35;100.00;100537.88;109366;1254;72424;-80
2023/01/30 08:23:35;;;;;;;8.40;4.70;;;;;;;-1.33;100.00;100535.88;109234;1253;60358;-80
2023/01/30 08:26:24;;;;;;;8.10;4.80;;;;;;;-1.28;100.00;100535.36;109500;1252;59270;-80
2023/01/30 08:29:13;;;;;;;16.60;5.80;;;;;;;-1.24;100.00;100533.23;109391;1253;74812;-80
2023/01/30 08:32:02;;;;;;;11.10;4.90;;;;;;;-1.20;100.00;100529.95;109066;1254;69165;-80
2023/01/30 08:34:50;;;;;;;12.90;5.20;;;;;;;-1.15;100.00;100523.06;109218;1254;72382;-80
2023/01/30 08:37:40;;;;;;;10.40;5.10;;;;;;;-1.09;100.00;100521.41;109444;1253;61337;-80
2023/01/30 08:40:28;;;;;;;9.90;5.10;;;;;;;-1.06;100.00;100514.56;109422;1254;60081;-80
2023/01/30 08:43:17;;;;;;;11.90;5.50;;;;;;;-1.01;100.00;100502.29;109394;1254;73597;-80
2023/01/30 08:46:06;;;;;;;11.50;5.20;;;;;;;-1.00;100.00;100496.22;109206;1254;68735;-80
2023/01/30 08:48:55;;;;;;;11.30;5.50;;;;;;;-1.00;100.00;100494.23;109292;1253;73762;-80
2023/01/30 08:51:44;;;;;;;10.00;5.80;;;;;;;-0.99;100.00;100489.79;109238;1254;59076;-80
2023/01/30 08:54:33;;;;;;;11.20;5.50;;;;;;;-0.97;100.00;100485.46;109273;1254;61508;-80
2023/01/30 08:57:22;;;;;;;11.90;5.20;;;;;;;-0.96;100.00;100481.09;109238;1254;75037;-80
2023/01/30 09:00:11;;;;;;;10.30;5.10;;;;;;;-0.95;100.00;100475.52;109306;1253;69964;-80
2023/01/30 09:03:00;;;;;;;11.60;4.80;;;;;;;-0.94;100.00;100472.46;109334;1253;74800;-80
2023/01/30 09:05:55;;;;;;;9.90;5.50;;;;;;;-0.91;100.00;100464.23;109369;1253;61532;-80
2023/01/30 09:08:44;;;;;;;12.80;5.70;;;;;;;-0.89;100.00;100464.02;109412;1252;61523;-80
2023/01/30 09:11:35;;;;;;;9.90;5.50;;;;;;;-0.89;100.00;100458.40;109374;1253;74715;-80
2023/01/30 09:14:23;;;;;;;10.20;5.30;;;;;;;-0.92;100.00;100453.89;109455;1253;69969;-80
2023/01/30 09:17:12;;;;;;;10.80;6.30;;;;;;;-0.97;100.00;100452.20;109292;1253;73650;-80
2023/01/30 09:20:01;;;;;;;9.40;5.40;;;;;;;-0.99;100.00;100451.01;109390;1253;61804;-80
2023/01/30 09:22:50;;;;;;;9.50;5.80;;;;;;;-0.97;100.00;100446.63;109325;1252;60430;-80
2023/01/30 09:25:40;;;;;;;10.00;5.00;;;;;;;-0.92;100.00;100440.27;109425;1253;73823;-80
2023/01/30 09:28:29;;;;;;;11.00;5.50;;;;;;;-0.90;100.00;100425.35;109396;1253;68745;-80
2023/01/30 09:31:18;;;;;;;12.00;5.40;;;;;;;-0.89;100.00;100420.21;109267;1253;72631;-80
2023/01/30 09:34:07;;;;;;;15.70;5.90;;;;;;;-0.89;100.00;100413.49;109262;1254;60648;-80
2023/01/30 09:36:59;;;;;;;11.40;5.80;;;;;;;-0.86;100.00;100408.39;109430;1252;60659;-80
2023/01/30 09:39:47;;;;;;;10.50;5.50;;;;;;;-0.84;100.00;100405.73;109393;1253;73885;-80
2023/01/30 09:42:46;;;;;;;9.30;4.80;;;;;;;-0.82;100.00;100400.66;109363;1255;69428;-80
2023/01/30 09:45:50;;;;;;;10.30;4.80;;;;;;;-0.79;100.00;100391.01;109249;1252;72648;-79
2023/01/30 09:48:49;;;;;;;9.90;4.70;;;;;;;-0.79;100.00;100387.55;109254;1254;60213;-80
2023/01/30 09:51:42;;;;;;;9.50;4.80;;;;;;;-0.81;100.00;100378.01;109258;1253;60057;-80
2023/01/30 09:54:35;;;;;;;10.50;4.80;;;;;;;-0.78;100.00;100373.63;109098;1254;75137;-80
2023/01/30 09:57:24;;;;;;;9.30;4.80;;;;;;;-0.77;100.00;100371.69;109017;1253;69946;-80
2023/01/30 10:00:24;;;;;;;12.40;5.60;;;;;;;-0.74;100.00;100370.58;109497;1253;72644;-80
2023/01/30 12:06:30;;;;;;;10.50;4.90;;;;;;;-1.31;100.00;100160.52;105710;1292;600355;-81
2023/01/30 12:09:34;;;;;;;8.90;4.70;;;;;;;-1.30;100.00;100164.80;108274;1265;60337;-81
2023/01/30 12:12:32;;;;;;;12.60;5.50;;;;;;;-1.27;100.00;100167.48;108349;1267;61512;-81
2023/01/30 12:15:25;;;;;;;11.50;5.20;;;;;;;-1.23;100.00;100165.38;108396;1267;72285;-81
2023/01/30 12:18:22;;;;;;;12.60;6.40;;;;;;;-1.21;100.00;100163.14;108452;1266;68964;-81
2023/01/30 12:21:25;;;;;;;12.50;6.20;;;;;;;-1.18;100.00;100159.46;108382;1263;180858;-81
2023/01/30 12:24:31;;;;;;;15.00;7.60;;;;;;;-1.16;100.00;100162.65;108523;1268;60387;-81
2023/01/30 12:27:23;;;;;;;12.40;7.00;;;;;;;-1.16;100.00;100154.81;108527;1263;61553;-81
2023/01/30 12:30:15;;;;;;;12.80;6.40;;;;;;;-1.17;100.00;100145.81;108555;1263;72445;-81
2023/01/30 12:33:05;;;;;;;;;;;;;;;-1.16;100.00;100142.59;108627;1263;69645;-81
2023/01/30 12:35:59;;;;;;;15.20;7.10;;;;;;;-1.15;100.00;100140.36;108470;1263;73816;-81
2023/01/30 12:39:25;;;;;;;14.00;7.10;;;;;;;-1.16;100.00;100141.92;108610;1263;59271;-81
2023/01/30 12:42:42;;;;;;;16.30;7.00;;;;;;;-1.16;100.00;100139.95;108639;1263;61174;-81
2023/01/30 12:46:01;;;;;;;19.30;7.90;;;;;;;-1.19;100.00;100134.73;109035;1257;72807;-81
2023/01/30 12:49:07;;;;;;;15.40;7.10;;;;;;;-1.20;100.00;100137.18;108920;1257;67424;-82
2023/01/30 12:52:17;;;;;;;18.40;9.20;;;;;;;-1.20;100.00;100128.86;108872;1257;74402;-81
2023/01/30 12:55:06;;;;;;;17.20;8.50;;;;;;;-1.20;100.00;100126.02;108962;1257;58501;-81
2023/01/30 12:58:00;;;;;;;16.40;7.80;;;;;;;-1.21;100.00;100117.70;109031;1257;59918;-81
2023/01/30 13:00:52;;;;;;;18.50;8.00;;;;;;;-1.20;100.00;100111.74;108887;1257;72991;-81
2023/01/30 13:04:05;;;;;;;18.20;7.80;;;;;;;-1.20;100.00;100111.54;109094;1256;70154;-81
2023/01/30 13:06:58;;;;;;;17.40;8.20;;;;;;;-1.19;100.00;100109.59;108890;1256;72613;-81
2023/01/30 13:10:13;;;;;;;17.60;8.50;;;;;;;-1.20;100.00;100108.27;109045;1260;59588;-81
2023/01/30 13:13:20;;;;;;;17.20;8.10;;;;;;;-1.22;100.00;100102.45;109074;1257;61524;-81
2023/01/30 13:16:21;;;;;;;18.00;8.40;;;;;;;-1.22;100.00;100100.56;108861;1257;73718;-81
2023/01/30 13:19:18;;;;;;;17.80;8.10;;;;;;;-1.23;100.00;100094.80;109035;1257;69924;-81
2023/01/30 13:22:23;;;;;;;19.90;9.70;;;;;;;-1.24;100.00;100093.31;109064;1256;73641;-81
2023/01/30 13:25:30;;;;;;;17.40;7.70;;;;;;;-1.25;100.00;100097.69;108994;1256;59554;-81
2023/01/30 13:28:22;;;;;;;18.60;8.90;;;;;;;-1.26;100.00;100094.52;108970;1257;60608;-81
2023/01/30 13:31:16;;;;;;;17.30;8.30;;;;;;;-1.26;100.00;100093.80;108875;1257;72656;-81
2023/01/30 13:34:06;;;;;;;17.70;8.90;;;;;;;-1.27;100.00;100089.29;108997;1257;69215;-81
2023/01/30 13:37:03;;;;;;;19.60;8.20;;;;;;;-1.29;100.00;100091.11;108866;1257;72273;-81
2023/01/30 13:39:54;;;;;;;20.60;8.10;;;;;;;-1.31;100.00;100088.80;108835;1257;59362;-81
2023/01/30 13:42:57;;;;;;;17.60;8.20;;;;;;;-1.31;100.00;100089.58;108782;1257;60335;-81
2023/01/30 13:45:47;;;;;;;20.20;9.90;;;;;;;-1.31;100.00;100086.41;108903;1257;72760;-81
2023/01/30 13:48:42;;;;;;;16.50;8.10;;;;;;;-1.34;100.00;100086.15;109007;1256;69678;-81
2023/01/30 13:52:01;;;;;;;18.60;8.70;;;;;;;-1.36;100.00;100087.03;108976;1257;73631;-81
2023/01/30 13:55:20;;;;;;;16.30;9.00;;;;;;;-1.39;100.00;100087.20;108963;1257;59254;-81
2023/01/30 13:58:16;;;;;;;18.70;9.10;;;;;;;-1.41;100.00;100077.02;108898;1256;61509;-81
2023/01/30 14:01:05;;;;;;;17.30;8.20;;;;;;;-1.43;100.00;100074.80;108960;1257;74790;-81
2023/01/30 14:03:54;;;;;;;14.70;7.60;;;;;;;-1.45;100.00;100070.64;108912;1257;68870;-81
2023/01/30 14:06:43;;;;;;;17.60;7.80;;;;;;;-1.47;100.00;100068.91;108788;1260;71816;-81
2023/01/30 14:09:38;;;;;;;15.10;7.80;;;;;;;-1.48;100.00;100065.73;109069;1257;62074;-81
2023/01/30 14:12:33;;;;;;;18.30;7.90;;;;;;;-1.50;100.00;100062.33;109033;1256;59880;-81
2023/01/30 14:15:27;;;;;;;15.40;7.40;;;;;;;-1.51;100.00;100060.17;108914;1258;74236;-81
2023/01/30 14:18:26;;;;;;;15.30;7.60;;;;;;;-1.53;100.00;100066.55;108887;1257;68837;-81
2023/01/30 14:21:19;;;;;;;16.80;7.60;;;;;;;-1.55;100.00;100064.98;108922;1257;73690;-81
2023/01/30 14:24:17;;;;;;;17.20;7.90;;;;;;;-1.57;100.00;100060.02;109025;1257;59891;-81
2023/01/30 14:27:22;;;;;;;19.00;8.20;;;;;;;-1.58;100.00;100060.20;108906;1257;61250;-81
2023/01/30 14:30:33;;;;;;;12.60;7.20;;;;;;;-1.60;100.00;100059.21;109046;1257;72727;-80
2023/01/30 14:33:22;;;;;;;17.80;7.40;;;;;;;-1.60;100.00;100062.10;108981;1257;68480;-81
2023/01/30 14:36:14;;;;;;;14.00;7.10;;;;;;;-1.62;100.00;100061.48;109069;1256;73584;-81
2023/01/30 14:39:38;;;;;;;13.40;5.90;;;;;;;-1.63;100.00;100052.33;109056;1257;59420;-81
2023/01/30 14:42:28;;;;;;;16.00;7.20;;;;;;;-1.63;100.00;100043.46;109028;1260;60048;-81
2023/01/30 14:45:17;;;;;;;13.40;6.60;;;;;;;-1.65;100.00;100049.42;108939;1257;73097;-81
2023/01/30 14:48:28;;;;;;;11.90;5.60;;;;;;;-1.66;100.00;100047.06;109010;1257;69334;-81
2023/01/30 14:51:32;;;;;;;14.40;6.50;;;;;;;-1.67;100.00;100045.38;109056;1257;72540;-81
2023/01/30 14:54:24;;;;;;;15.70;6.80;;;;;;;-1.68;100.00;100045.58;109063;1260;60611;-81
2023/01/30 14:57:31;;;;;;;12.20;6.50;;;;;;;-1.69;100.00;100041.59;109064;1256;61063;-81
2023/01/30 15:00:28;;;;;;;14.70;6.40;;;;;;;-1.69;100.00;100047.52;108899;1257;74197;-81
2023/01/30 15:03:17;;;;;;;12.30;6.60;;;;;;;-1.71;100.00;100044.85;108911;1257;69812;-81
2023/01/30 15:06:06;;;;;;;12.60;6.30;;;;;;;-1.70;100.00;100047.66;109065;1256;73895;-81
2023/01/30 15:08:55;;;;;;;14.10;6.80;;;;;;;-1.71;100.00;100045.02;108902;1258;59270;-81
2023/01/30 15:11:45;;;;;;;13.70;6.70;;;;;;;-1.72;100.00;100044.44;109005;1257;61616;-82